createdAt,value
2024-04-18T00:00:16.306Z,1010.2
2024-04-18T00:01:15.946Z,1010.2
2024-04-18T00:02:15.905Z,1010.1
2024-04-18T00:03:15.966Z,1010.2
2024-04-18T00:04:16.005Z,1010.2
2024-04-18T00:05:15.901Z,1010.2
2024-04-18T00:06:15.937Z,1010.2
2024-04-18T00:07:15.949Z,1010.1
2024-04-18T00:08:18.943Z,1010.2
2024-04-18T00:09:15.878Z,1010.1
2024-04-18T00:10:15.890Z,1010.2
2024-04-18T00:11:15.904Z,1010.2
2024-04-18T00:12:15.866Z,1010.2
2024-04-18T00:13:15.801Z,1010.2
2024-04-18T00:14:15.834Z,1010.2
2024-04-18T00:15:15.857Z,1010.2
2024-04-18T00:16:15.940Z,1010.3
2024-04-18T00:17:15.869Z,1010.2
2024-04-18T00:18:16.017Z,1010.3
2024-04-18T00:19:15.872Z,1010.2
2024-04-18T00:20:15.918Z,1010.2
2024-04-18T00:21:15.856Z,1010.3
2024-04-18T00:22:15.860Z,1010.2
2024-04-18T00:23:15.840Z,1010.2
2024-04-18T00:24:15.887Z,1010.3
2024-04-18T00:25:15.911Z,1010.2
2024-04-18T00:26:15.852Z,1010.3
2024-04-18T00:27:15.878Z,1010.3
2024-04-18T00:28:15.811Z,1010.3
2024-04-18T00:29:18.799Z,1010.2
2024-04-18T00:30:15.998Z,1010.2
2024-04-18T00:31:15.831Z,1010.2
2024-04-18T00:32:15.863Z,1010.3
2024-04-18T00:33:15.836Z,1010.3
2024-04-18T00:34:16.031Z,1010.2
2024-04-18T00:35:15.822Z,1010.3
2024-04-18T00:36:15.801Z,1010.3
2024-04-18T00:37:15.857Z,1010.2
2024-04-18T00:38:15.807Z,1010.3
2024-04-18T00:39:15.870Z,1010.3
2024-04-18T00:40:15.810Z,1010.3
2024-04-18T00:41:16.316Z,1010.4
2024-04-18T00:42:15.846Z,1010.3
2024-04-18T00:43:15.751Z,1010.3
2024-04-18T00:44:15.814Z,1010.4
2024-04-18T00:45:15.878Z,1010.3
2024-04-18T00:46:15.843Z,1010.3
2024-04-18T00:47:15.826Z,1010.3
2024-04-18T00:48:15.958Z,1010.2
2024-04-18T00:49:15.885Z,1010.4
2024-04-18T00:50:18.912Z,1010.3
2024-04-18T00:51:15.818Z,1010.3
2024-04-18T00:52:16.036Z,1010.3
2024-04-18T00:53:15.781Z,1010.3
2024-04-18T00:54:15.856Z,1010.3
2024-04-18T00:55:15.776Z,1010.3
2024-04-18T00:56:18.400Z,1010.3
2024-04-18T00:57:15.797Z,1010.3
2024-04-18T00:58:16.075Z,1010.3
2024-04-18T00:59:15.763Z,1010.4
2024-04-18T01:00:15.770Z,1010.4
2024-04-18T01:01:15.846Z,1010.3
2024-04-18T01:02:15.895Z,1010.3
2024-04-18T01:03:15.991Z,1010.4
2024-04-18T01:04:16.066Z,1010.3
2024-04-18T01:05:15.856Z,1010.3
2024-04-18T01:06:15.805Z,1010.4
2024-04-18T01:07:15.819Z,1010.3
2024-04-18T01:08:15.758Z,1010.3
2024-04-18T01:09:15.786Z,1010.3
2024-04-18T01:10:16.109Z,1010.3
2024-04-18T01:11:18.987Z,1010.3
2024-04-18T01:12:15.758Z,1010.3
2024-04-18T01:13:15.730Z,1010.3
2024-04-18T01:14:15.853Z,1010.3
2024-04-18T01:15:15.812Z,1010.3
2024-04-18T01:16:15.763Z,1010.3
2024-04-18T01:17:15.780Z,1010.3
2024-04-18T01:18:15.902Z,1010.3
2024-04-18T01:19:15.716Z,1010.3
2024-04-18T01:20:15.784Z,1010.3
2024-04-18T01:21:15.961Z,1010.3
2024-04-18T01:22:15.705Z,1010.3
2024-04-18T01:23:15.695Z,1010.3
2024-04-18T01:24:15.715Z,1010.3
2024-04-18T01:25:15.929Z,1010.4
2024-04-18T01:26:15.757Z,1010.3
2024-04-18T01:27:15.763Z,1010.4
2024-04-18T01:28:15.693Z,1010.4
2024-04-18T01:29:15.811Z,1010.4
2024-04-18T01:30:15.732Z,1010.3
2024-04-18T01:31:16.404Z,1010.3
2024-04-18T01:32:15.811Z,1010.3
2024-04-18T01:33:15.921Z,1010.4
2024-04-18T01:34:15.782Z,1010.3
2024-04-18T01:35:15.701Z,1010.3
2024-04-18T01:36:15.977Z,1010.4
2024-04-18T01:37:15.759Z,1010.4
2024-04-18T01:38:15.652Z,1010.4
2024-04-18T01:39:15.706Z,1010.5
2024-04-18T01:40:15.694Z,1010.3
2024-04-18T01:41:15.738Z,1010.4
2024-04-18T01:42:15.691Z,1010.4
2024-04-18T01:43:15.658Z,1010.4
2024-04-18T01:44:15.649Z,1010.5
2024-04-18T01:45:15.671Z,1010.4
2024-04-18T01:46:15.679Z,1010.5
2024-04-18T01:47:15.833Z,1010.5
2024-04-18T01:48:15.923Z,1010.5
2024-04-18T01:49:15.829Z,1010.4
2024-04-18T01:50:15.654Z,1010.5
2024-04-18T01:51:15.668Z,1010.5
2024-04-18T01:52:16.421Z,1010.6
2024-04-18T01:53:15.681Z,1010.5
2024-04-18T01:54:15.661Z,1010.6
2024-04-18T01:55:15.631Z,1010.5
2024-04-18T01:56:15.649Z,1010.6
2024-04-18T01:57:15.701Z,1010.6
2024-04-18T01:58:15.789Z,1010.5
2024-04-18T01:59:15.618Z,1010.6
2024-04-18T02:00:15.649Z,1010.6
2024-04-18T02:01:15.820Z,1010.5
2024-04-18T02:02:15.636Z,1010.6
2024-04-18T02:03:15.733Z,1010.5
2024-04-18T02:04:15.650Z,1010.6
2024-04-18T02:05:15.648Z,1010.6
2024-04-18T02:06:15.688Z,1010.6
2024-04-18T02:07:15.608Z,1010.6
2024-04-18T02:08:15.662Z,1010.6
2024-04-18T02:09:15.814Z,1010.6
2024-04-18T02:10:15.657Z,1010.6
2024-04-18T02:11:15.633Z,1010.6
2024-04-18T02:12:15.640Z,1010.6
2024-04-18T02:13:16.561Z,1010.6
2024-04-18T02:14:15.642Z,1010.6
2024-04-18T02:15:15.639Z,1010.6
2024-04-18T02:16:15.614Z,1010.6
2024-04-18T02:17:15.680Z,1010.6
2024-04-18T02:18:15.759Z,1010.6
2024-04-18T02:19:15.635Z,1010.5
2024-04-18T02:20:15.760Z,1010.5
2024-04-18T02:21:15.662Z,1010.5
2024-04-18T02:22:15.599Z,1010.5
2024-04-18T02:23:15.591Z,1010.6
2024-04-18T02:24:15.630Z,1010.6
2024-04-18T02:25:15.582Z,1010.5
2024-04-18T02:26:15.612Z,1010.5
2024-04-18T02:27:15.632Z,1010.6
2024-04-18T02:28:15.586Z,1010.6
2024-04-18T02:29:15.618Z,1010.6
2024-04-18T02:30:15.592Z,1010.6
2024-04-18T02:31:15.671Z,1010.6
2024-04-18T02:32:15.624Z,1010.6
2024-04-18T02:33:15.637Z,1010.7
2024-04-18T02:34:17.043Z,1010.7
2024-04-18T02:35:15.608Z,1010.6
2024-04-18T02:36:15.625Z,1010.7
2024-04-18T02:37:15.584Z,1010.7
2024-04-18T02:38:15.593Z,1010.6
2024-04-18T02:39:15.611Z,1010.7
2024-04-18T02:40:15.645Z,1010.7
2024-04-18T02:41:15.632Z,1010.6
2024-04-18T02:42:15.777Z,1010.6
2024-04-18T02:43:15.551Z,1010.6
2024-04-18T02:44:15.579Z,1010.6
2024-04-18T02:45:15.669Z,1010.7
2024-04-18T02:46:15.572Z,1010.6
2024-04-18T02:47:15.599Z,1010.7
2024-04-18T02:48:15.637Z,1010.6
2024-04-18T02:49:15.551Z,1010.7
2024-04-18T02:50:15.574Z,1010.7
2024-04-18T02:51:15.611Z,1010.7
2024-04-18T02:52:15.584Z,1010.7
2024-04-18T02:53:15.699Z,1010.7
2024-04-18T02:54:15.571Z,1010.7
2024-04-18T02:55:17.240Z,1010.7
2024-04-18T02:56:15.565Z,1010.8
2024-04-18T02:57:15.621Z,1010.8
2024-04-18T02:58:15.540Z,1010.7
2024-04-18T02:59:15.548Z,1010.8
2024-04-18T03:00:15.584Z,1010.8
2024-04-18T03:01:15.655Z,1010.8
2024-04-18T03:02:15.620Z,1010.7
2024-04-18T03:03:15.583Z,1010.8
2024-04-18T03:04:15.799Z,1010.8
2024-04-18T03:05:15.546Z,1010.8
2024-04-18T03:06:15.546Z,1010.8
2024-04-18T03:07:15.538Z,1010.8
2024-04-18T03:08:15.562Z,1010.8
2024-04-18T03:09:15.568Z,1010.8
2024-04-18T03:10:15.568Z,1010.7
2024-04-18T03:11:15.603Z,1010.7
2024-04-18T03:12:15.536Z,1010.8
2024-04-18T03:13:15.566Z,1010.8
2024-04-18T03:14:15.559Z,1010.7
2024-04-18T03:15:15.786Z,1010.7
2024-04-18T03:16:17.590Z,1010.7
2024-04-18T03:17:15.596Z,1010.7
2024-04-18T03:18:15.745Z,1010.7
2024-04-18T03:19:15.523Z,1010.7
2024-04-18T03:20:15.510Z,1010.8
2024-04-18T03:21:15.605Z,1010.7
2024-04-18T03:22:15.509Z,1010.7
2024-04-18T03:23:15.499Z,1010.7
2024-04-18T03:24:15.513Z,1010.6
2024-04-18T03:25:15.500Z,1010.8
2024-04-18T03:26:15.553Z,1010.7
2024-04-18T03:27:15.524Z,1010.7
2024-04-18T03:28:15.571Z,1010.7
2024-04-18T03:29:15.471Z,1010.7
2024-04-18T03:30:15.525Z,1010.7
2024-04-18T03:31:15.515Z,1010.7
2024-04-18T03:32:15.581Z,1010.7
2024-04-18T03:33:15.582Z,1010.8
2024-04-18T03:34:15.487Z,1010.8
2024-04-18T03:35:15.502Z,1010.8
2024-04-18T03:36:15.555Z,1010.8
2024-04-18T03:37:18.207Z,1010.8
2024-04-18T03:38:15.544Z,1010.8
2024-04-18T03:39:15.488Z,1010.8
2024-04-18T03:40:15.516Z,1010.8
2024-04-18T03:41:15.486Z,1010.8
2024-04-18T03:42:16.257Z,1010.8
2024-04-18T03:43:16.206Z,1010.8
2024-04-18T03:44:16.454Z,1010.8
2024-04-18T03:45:15.543Z,1010.9
2024-04-18T03:46:15.483Z,1010.9
2024-04-18T03:47:15.503Z,1010.9
2024-04-18T03:48:15.582Z,1010.9
2024-04-18T03:49:15.496Z,1010.9
2024-04-18T03:50:15.470Z,1010.9
2024-04-18T03:51:15.518Z,1010.9
2024-04-18T03:52:15.451Z,1010.9
2024-04-18T03:53:15.498Z,1010.8
2024-04-18T03:54:15.496Z,1010.9
2024-04-18T03:55:15.520Z,1010.9
2024-04-18T03:56:15.804Z,1010.9
2024-04-18T03:57:15.463Z,1010.9
2024-04-18T03:58:18.222Z,1010.9
2024-04-18T03:59:15.425Z,1010.9
2024-04-18T04:00:15.502Z,1010.8
2024-04-18T04:01:15.606Z,1010.8
2024-04-18T04:02:15.555Z,1010.9
2024-04-18T04:03:15.533Z,1010.9
2024-04-18T04:04:15.511Z,1011.0
2024-04-18T04:05:15.428Z,1010.9
2024-04-18T04:06:15.484Z,1010.9
2024-04-18T04:07:15.590Z,1011.0
2024-04-18T04:08:15.451Z,1011.0
2024-04-18T04:09:15.527Z,1011.0
2024-04-18T04:10:15.465Z,1010.9
2024-04-18T04:11:15.521Z,1010.9
2024-04-18T04:12:15.510Z,1010.9
2024-04-18T04:13:15.490Z,1011.0
2024-04-18T04:14:15.447Z,1011.0
2024-04-18T04:15:15.508Z,1010.9
2024-04-18T04:16:15.422Z,1011.0
2024-04-18T04:17:15.442Z,1011.0
2024-04-18T04:18:15.833Z,1011.0
2024-04-18T04:19:18.752Z,1011.0
2024-04-18T04:20:15.430Z,1011.0
2024-04-18T04:21:15.492Z,1011.1
2024-04-18T04:22:15.469Z,1011.1
2024-04-18T04:23:15.432Z,1011.1
2024-04-18T04:24:15.439Z,1011.1
2024-04-18T04:25:15.438Z,1011.1
2024-04-18T04:26:15.384Z,1011.0
2024-04-18T04:27:15.443Z,1011.1
2024-04-18T04:28:15.518Z,1011.1
2024-04-18T04:29:15.403Z,1011.2
2024-04-18T04:30:15.662Z,1011.1
2024-04-18T04:31:15.412Z,1011.1
2024-04-18T04:32:15.453Z,1011.1
2024-04-18T04:33:15.401Z,1011.1
2024-04-18T04:34:15.440Z,1011.1
2024-04-18T04:35:16.079Z,1011.2
2024-04-18T04:36:16.172Z,1011.2
2024-04-18T04:37:16.162Z,1011.1
2024-04-18T04:38:16.180Z,1011.2
2024-04-18T04:39:16.520Z,1011.1
2024-04-18T04:40:19.651Z,1011.1
2024-04-18T04:41:15.368Z,1011.1
2024-04-18T04:42:15.441Z,1011.2
2024-04-18T04:43:15.390Z,1011.2
2024-04-18T04:44:15.379Z,1011.1
2024-04-18T04:45:15.388Z,1011.1
2024-04-18T04:46:15.359Z,1011.1
2024-04-18T04:47:15.520Z,1011.2
2024-04-18T04:48:15.604Z,1011.2
2024-04-18T04:49:15.472Z,1011.2
2024-04-18T04:50:15.364Z,1011.3
2024-04-18T04:51:15.381Z,1011.2
2024-04-18T04:52:15.559Z,1011.2
2024-04-18T04:53:15.376Z,1011.3
2024-04-18T04:54:15.425Z,1011.3
2024-04-18T04:55:15.449Z,1011.3
2024-04-18T04:56:15.346Z,1011.3
2024-04-18T04:57:15.735Z,1011.3
2024-04-18T04:58:15.341Z,1011.4
2024-04-18T04:59:15.373Z,1011.4
2024-04-18T05:00:16.713Z,1011.4
2024-04-18T05:01:15.428Z,1011.4
2024-04-18T05:02:15.588Z,1011.4
2024-04-18T05:03:15.615Z,1011.4
2024-04-18T05:04:15.483Z,1011.3
2024-04-18T05:05:15.422Z,1011.4
2024-04-18T05:06:15.468Z,1011.3
2024-04-18T05:07:15.343Z,1011.4
2024-04-18T05:08:15.506Z,1011.4
2024-04-18T05:09:16.477Z,1011.4
2024-04-18T05:10:15.350Z,1011.5
2024-04-18T05:11:15.593Z,1011.4
2024-04-18T05:12:15.497Z,1011.5
2024-04-18T05:13:15.429Z,1011.4
2024-04-18T05:14:16.250Z,1011.4
2024-04-18T05:15:15.819Z,1011.5
2024-04-18T05:16:15.562Z,1011.5
2024-04-18T05:17:15.611Z,1011.5
2024-04-18T05:18:15.416Z,1011.5
2024-04-18T05:19:15.357Z,1011.5
2024-04-18T05:20:15.686Z,1011.5
2024-04-18T05:21:18.799Z,1011.5
2024-04-18T05:22:15.580Z,1011.4
2024-04-18T05:23:15.382Z,1011.6
2024-04-18T05:24:15.684Z,1011.5
2024-04-18T05:25:15.959Z,1011.6
2024-04-18T05:26:16.071Z,1011.6
2024-04-18T05:27:16.101Z,1011.6
2024-04-18T05:28:16.197Z,1011.5
2024-04-18T05:29:15.308Z,1011.6
2024-04-18T05:30:15.332Z,1011.6
2024-04-18T05:31:15.331Z,1011.5
2024-04-18T05:32:15.331Z,1011.6
2024-04-18T05:33:15.475Z,1011.6
2024-04-18T05:34:15.390Z,1011.6
2024-04-18T05:35:15.386Z,1011.7
2024-04-18T05:36:15.313Z,1011.7
2024-04-18T05:37:15.845Z,1011.7
2024-04-18T05:38:15.454Z,1011.6
2024-04-18T05:39:15.333Z,1011.6
2024-04-18T05:40:15.626Z,1011.6
2024-04-18T05:41:16.418Z,1011.6
2024-04-18T05:42:15.322Z,1011.6
2024-04-18T05:43:15.444Z,1011.7
2024-04-18T05:44:15.537Z,1011.7
2024-04-18T05:45:15.251Z,1011.7
2024-04-18T05:46:15.429Z,1011.6
2024-04-18T05:47:15.792Z,1011.7
2024-04-18T05:48:15.322Z,1011.7
2024-04-18T05:49:15.320Z,1011.7
2024-04-18T05:50:15.343Z,1011.7
2024-04-18T05:51:15.312Z,1011.7
2024-04-18T05:52:15.299Z,1011.6
2024-04-18T05:53:15.257Z,1011.7
2024-04-18T05:54:15.265Z,1011.7
2024-04-18T05:55:15.245Z,1011.8
2024-04-18T05:56:15.279Z,1011.7
2024-04-18T05:57:15.312Z,1011.8
2024-04-18T05:58:15.312Z,1011.7
2024-04-18T05:59:15.304Z,1011.7
2024-04-18T06:00:15.249Z,1011.7
2024-04-18T06:01:15.327Z,1011.7
2024-04-18T06:02:16.968Z,1011.8
2024-04-18T06:03:15.296Z,1011.7
2024-04-18T06:04:15.327Z,1011.8
2024-04-18T06:05:15.251Z,1011.8
2024-04-18T06:06:15.616Z,1011.8
2024-04-18T06:07:15.242Z,1011.8
2024-04-18T06:08:15.582Z,1011.9
2024-04-18T06:09:15.764Z,1011.8
2024-04-18T06:10:15.256Z,1011.9
2024-04-18T06:11:15.630Z,1011.9
2024-04-18T06:12:15.322Z,1011.8
2024-04-18T06:13:15.581Z,1011.9
2024-04-18T06:14:15.210Z,1011.9
2024-04-18T06:15:15.323Z,1011.9
2024-04-18T06:16:15.356Z,1011.9
2024-04-18T06:17:15.240Z,1011.8
2024-04-18T06:18:15.283Z,1011.9
2024-04-18T06:19:15.261Z,1011.8
2024-04-18T06:20:15.259Z,1011.9
2024-04-18T06:21:15.212Z,1011.9
2024-04-18T06:22:15.234Z,1011.8
2024-04-18T06:23:16.441Z,1011.8
2024-04-18T06:24:15.364Z,1011.8
2024-04-18T06:25:15.238Z,1011.8
2024-04-18T06:26:15.237Z,1011.8
2024-04-18T06:27:15.180Z,1011.8
2024-04-18T06:28:15.329Z,1011.8
2024-04-18T06:29:15.198Z,1011.7
2024-04-18T06:30:15.250Z,1011.8
2024-04-18T06:31:15.315Z,1011.8
2024-04-18T06:32:15.220Z,1011.9
2024-04-18T06:33:15.462Z,1011.8
2024-04-18T06:34:15.317Z,1011.9
2024-04-18T06:35:15.376Z,1011.9
2024-04-18T06:36:15.291Z,1012.0
2024-04-18T06:37:15.224Z,1011.9
2024-04-18T06:38:15.427Z,1012.0
2024-04-18T06:39:15.194Z,1011.9
2024-04-18T06:40:15.223Z,1012.0
2024-04-18T06:41:15.193Z,1012.0
2024-04-18T06:42:15.254Z,1012.0
2024-04-18T06:43:15.268Z,1012.1
2024-04-18T06:44:16.687Z,1012.0
2024-04-18T06:45:15.201Z,1012.0
2024-04-18T06:46:15.217Z,1012.2
2024-04-18T06:47:15.212Z,1012.1
2024-04-18T06:48:15.277Z,1012.1
2024-04-18T06:49:15.196Z,1012.2
2024-04-18T06:50:15.188Z,1012.1
2024-04-18T06:51:15.222Z,1012.1
2024-04-18T06:52:15.168Z,1012.2
2024-04-18T06:53:15.179Z,1012.2
2024-04-18T06:54:15.225Z,1012.1
2024-04-18T06:55:15.193Z,1012.2
2024-04-18T06:56:15.143Z,1012.2
2024-04-18T06:57:15.294Z,1012.2
2024-04-18T06:58:15.190Z,1012.3
2024-04-18T06:59:15.261Z,1012.1
2024-04-18T07:00:15.201Z,1012.1
2024-04-18T07:01:15.332Z,1012.1
2024-04-18T07:02:15.190Z,1012.2
2024-04-18T07:03:15.287Z,1012.1
2024-04-18T07:04:15.316Z,1012.2
2024-04-18T07:05:17.115Z,1012.2
2024-04-18T07:06:15.200Z,1012.2
2024-04-18T07:07:15.160Z,1012.2
2024-04-18T07:08:15.368Z,1012.2
2024-04-18T07:09:15.232Z,1012.1
2024-04-18T07:10:15.192Z,1012.2
2024-04-18T07:11:15.205Z,1012.2
2024-04-18T07:12:15.350Z,1012.2
2024-04-18T07:13:15.246Z,1012.1
2024-04-18T07:14:15.638Z,1012.2
2024-04-18T07:15:15.680Z,1012.1
2024-04-18T07:16:15.462Z,1012.1
2024-04-18T07:17:15.340Z,1012.2
2024-04-18T07:18:15.720Z,1012.2
2024-04-18T07:19:15.482Z,1012.1
2024-04-18T07:20:15.652Z,1012.1
2024-04-18T07:21:15.211Z,1012.2
2024-04-18T07:22:15.619Z,1012.2
2024-04-18T07:23:15.156Z,1012.2
2024-04-18T07:24:16.958Z,1012.1
2024-04-18T07:25:15.193Z,1012.2
2024-04-18T07:26:15.256Z,1012.2
2024-04-18T07:27:15.153Z,1012.3
2024-04-18T07:28:15.350Z,1012.2
2024-04-18T07:29:15.230Z,1012.3
2024-04-18T07:30:15.215Z,1012.3
2024-04-18T07:31:15.183Z,1012.2
2024-04-18T07:32:15.107Z,1012.3
2024-04-18T07:33:15.844Z,1012.3
2024-04-18T07:34:15.298Z,1012.3
2024-04-18T07:35:15.069Z,1012.3
2024-04-18T07:36:15.378Z,1012.3
2024-04-18T07:37:15.136Z,1012.3
2024-04-18T07:38:15.104Z,1012.3
2024-04-18T07:39:15.096Z,1012.3
2024-04-18T07:40:15.232Z,1012.3
2024-04-18T07:41:15.476Z,1012.3
2024-04-18T07:42:15.336Z,1012.3
2024-04-18T07:43:15.140Z,1012.4
2024-04-18T07:44:15.604Z,1012.3
2024-04-18T07:45:15.122Z,1012.3
2024-04-18T07:46:15.465Z,1012.2
2024-04-18T07:47:15.117Z,1012.3
2024-04-18T07:48:15.341Z,1012.2
2024-04-18T07:49:15.511Z,1012.2
2024-04-18T07:50:15.397Z,1012.2
2024-04-18T07:51:15.124Z,1012.2
2024-04-18T07:53:15.095Z,1012.2
2024-04-18T07:54:15.042Z,1012.3
2024-04-18T07:55:15.155Z,1012.3
2024-04-18T07:56:15.465Z,1012.3
2024-04-18T07:57:15.565Z,1012.3
2024-04-18T07:58:15.525Z,1012.3
2024-04-18T07:59:15.713Z,1012.2
2024-04-18T08:00:16.110Z,1012.3
2024-04-18T08:01:16.947Z,1012.4
2024-04-18T08:02:17.436Z,1012.3
2024-04-18T08:03:16.839Z,1012.3
2024-04-18T08:04:35.048Z,1012.3
2024-04-18T08:05:17.981Z,1012.3
2024-04-18T08:06:17.532Z,1012.3
2024-04-18T08:07:17.217Z,1012.3
2024-04-18T08:08:17.781Z,1012.3
2024-04-18T08:09:17.576Z,1012.3
2024-04-18T08:10:18.167Z,1012.3
2024-04-18T08:11:40.759Z,1012.3
2024-04-18T08:12:24.255Z,1012.3
2024-04-18T08:13:18.110Z,1012.2
2024-04-18T08:14:19.197Z,1012.3
2024-04-18T08:15:18.290Z,1012.3
2024-04-18T08:16:15.675Z,1012.3
2024-04-18T08:17:15.203Z,1012.3
2024-04-18T08:18:15.018Z,1012.4
2024-04-18T08:19:15.075Z,1012.4
2024-04-18T08:20:15.086Z,1012.4
2024-04-18T08:21:15.072Z,1012.4
2024-04-18T08:22:15.055Z,1012.3
2024-04-18T08:23:15.217Z,1012.3
2024-04-18T08:24:15.133Z,1012.3
2024-04-18T08:25:15.263Z,1012.3
2024-04-18T08:26:15.914Z,1012.3
2024-04-18T08:27:15.095Z,1012.3
2024-04-18T08:28:15.016Z,1012.3
2024-04-18T08:29:15.049Z,1012.3
2024-04-18T08:30:15.280Z,1012.3
2024-04-18T08:31:15.083Z,1012.3
2024-04-18T08:32:15.135Z,1012.3
2024-04-18T08:33:15.176Z,1012.3
2024-04-18T08:34:18.125Z,1012.2
2024-04-18T08:35:15.026Z,1012.3
2024-04-18T08:36:15.119Z,1012.2
2024-04-18T08:37:15.176Z,1012.2
2024-04-18T08:38:15.064Z,1012.3
2024-04-18T08:39:15.078Z,1012.2
2024-04-18T08:40:15.025Z,1012.3
2024-04-18T08:41:15.149Z,1012.2
2024-04-18T08:42:16.146Z,1012.2
2024-04-18T08:43:15.015Z,1012.2
2024-04-18T08:44:15.002Z,1012.2
2024-04-18T08:45:15.039Z,1012.3
2024-04-18T08:46:14.990Z,1012.3
2024-04-18T08:47:16.226Z,1012.2
2024-04-18T08:48:19.469Z,1012.3
2024-04-18T08:49:16.003Z,1012.2
2024-04-18T08:50:16.555Z,1012.2
2024-04-18T08:51:15.067Z,1012.3
2024-04-18T08:52:14.988Z,1012.2
2024-04-18T08:53:15.813Z,1012.2
2024-04-18T08:54:15.850Z,1012.3
2024-04-18T08:55:15.784Z,1012.3
2024-04-18T08:56:14.997Z,1012.2
2024-04-18T08:57:15.074Z,1012.3
2024-04-18T08:58:14.992Z,1012.3
2024-04-18T08:59:15.023Z,1012.2
2024-04-18T09:00:14.989Z,1012.2
2024-04-18T09:01:15.100Z,1012.2
2024-04-18T09:02:15.030Z,1012.2
2024-04-18T09:03:15.009Z,1012.2
2024-04-18T09:04:15.082Z,1012.2
2024-04-18T09:05:14.995Z,1012.1
2024-04-18T09:06:15.127Z,1012.2
2024-04-18T09:07:14.982Z,1012.2
2024-04-18T09:08:17.089Z,1012.2
2024-04-18T09:09:15.230Z,1012.2
2024-04-18T09:10:14.948Z,1012.1
2024-04-18T09:11:15.012Z,1012.2
2024-04-18T09:12:14.988Z,1012.1
2024-04-18T09:13:15.037Z,1012.1
2024-04-18T09:14:14.954Z,1012.2
2024-04-18T09:15:15.779Z,1012.2
2024-04-18T09:16:15.023Z,1012.2
2024-04-18T09:17:14.973Z,1012.2
2024-04-18T09:18:15.081Z,1012.2
2024-04-18T09:19:14.998Z,1012.2
2024-04-18T09:20:15.067Z,1012.1
2024-04-18T09:21:15.742Z,1012.2
2024-04-18T09:22:17.176Z,1012.1
2024-04-18T09:23:15.661Z,1012.2
2024-04-18T09:24:15.776Z,1012.2
2024-04-18T09:25:15.079Z,1012.1
2024-04-18T09:26:14.941Z,1012.2
2024-04-18T09:27:15.066Z,1012.2
2024-04-18T09:28:14.927Z,1012.1
2024-04-18T09:29:16.532Z,1012.2
2024-04-18T09:30:15.112Z,1012.2
2024-04-18T09:31:17.232Z,1012.2
2024-04-18T09:32:14.982Z,1012.2
2024-04-18T09:33:15.136Z,1012.2
2024-04-18T09:34:15.134Z,1012.2
2024-04-18T09:35:15.186Z,1012.2
2024-04-18T09:36:14.976Z,1012.2
2024-04-18T09:37:15.017Z,1012.2
2024-04-18T09:38:14.924Z,1012.2
2024-04-18T09:39:18.475Z,1012.2
2024-04-18T09:40:14.982Z,1012.2
2024-04-18T09:41:14.908Z,1012.2
2024-04-18T09:42:14.917Z,1012.2
2024-04-18T09:43:14.954Z,1012.2
2024-04-18T09:44:14.911Z,1012.2
2024-04-18T09:45:15.083Z,1012.2
2024-04-18T09:46:15.154Z,1012.2
2024-04-18T09:47:14.941Z,1012.2
2024-04-18T09:48:15.042Z,1012.3
2024-04-18T09:49:15.204Z,1012.2
2024-04-18T09:50:17.076Z,1012.3
2024-04-18T09:51:14.929Z,1012.3
2024-04-18T09:52:14.964Z,1012.3
2024-04-18T09:53:14.919Z,1012.2
2024-04-18T09:54:14.916Z,1012.3
2024-04-18T09:55:14.929Z,1012.4
2024-04-18T09:56:14.923Z,1012.3
2024-04-18T09:57:15.089Z,1012.3
2024-04-18T09:58:14.955Z,1012.4
2024-04-18T09:59:14.977Z,1012.4
2024-04-18T10:00:14.952Z,1012.3
2024-04-18T10:01:15.038Z,1012.4
2024-04-18T10:02:15.087Z,1012.4
2024-04-18T10:03:14.978Z,1012.3
2024-04-18T10:04:15.212Z,1012.3
2024-04-18T10:05:14.962Z,1012.3
2024-04-18T10:06:17.739Z,1012.4
2024-04-18T10:07:14.905Z,1012.3
2024-04-18T10:08:15.063Z,1012.3
2024-04-18T10:09:15.388Z,1012.3
2024-04-18T10:10:15.002Z,1012.3
2024-04-18T10:11:18.222Z,1012.2
2024-04-18T10:12:15.000Z,1012.2
2024-04-18T10:13:16.424Z,1012.3
2024-04-18T10:14:14.981Z,1012.3
2024-04-18T10:15:14.912Z,1012.3
2024-04-18T10:16:14.935Z,1012.2
2024-04-18T10:17:15.068Z,1012.3
2024-04-18T10:18:15.075Z,1012.2
2024-04-18T10:19:15.391Z,1012.2
2024-04-18T10:20:15.306Z,1012.2
2024-04-18T10:21:14.921Z,1012.3
2024-04-18T10:22:23.757Z,1012.3
2024-04-18T10:23:14.975Z,1012.3
2024-04-18T10:24:14.983Z,1012.3
2024-04-18T10:25:14.935Z,1012.2
2024-04-18T10:26:14.910Z,1012.3
2024-04-18T10:27:14.883Z,1012.3
2024-04-18T10:28:14.894Z,1012.3
2024-04-18T10:29:14.947Z,1012.3
2024-04-18T10:30:15.035Z,1012.2
2024-04-18T10:31:15.547Z,1012.2
2024-04-18T10:32:18.283Z,1012.2
2024-04-18T10:33:15.251Z,1012.2
2024-04-18T10:34:15.130Z,1012.2
2024-04-18T10:35:14.946Z,1012.3
2024-04-18T10:36:15.027Z,1012.3
2024-04-18T10:37:15.153Z,1012.2
2024-04-18T10:38:15.064Z,1012.2
2024-04-18T10:39:15.564Z,1012.2
2024-04-18T10:40:14.981Z,1012.2
2024-04-18T10:41:14.945Z,1012.1
2024-04-18T10:42:14.875Z,1012.2
2024-04-18T10:43:16.585Z,1012.2
2024-04-18T10:44:14.879Z,1012.3
2024-04-18T10:45:14.957Z,1012.3
2024-04-18T10:46:15.007Z,1012.2
2024-04-18T10:47:14.905Z,1012.3
2024-04-18T10:48:15.147Z,1012.2
2024-04-18T10:49:14.925Z,1012.2
2024-04-18T10:50:14.901Z,1012.2
2024-04-18T10:51:14.870Z,1012.2
2024-04-18T10:52:16.269Z,1012.2
2024-04-18T10:53:18.566Z,1012.2
2024-04-18T10:54:14.988Z,1012.2
2024-04-18T10:55:14.984Z,1012.3
2024-04-18T10:56:14.933Z,1012.2
2024-04-18T10:57:15.177Z,1012.3
2024-04-18T10:58:14.858Z,1012.3
2024-04-18T10:59:15.151Z,1012.3
2024-04-18T11:00:15.221Z,1012.2
2024-04-18T11:01:15.225Z,1012.3
2024-04-18T11:02:15.118Z,1012.3
2024-04-18T11:03:14.881Z,1012.4
2024-04-18T11:04:15.105Z,1012.4
2024-04-18T11:05:14.866Z,1012.4
2024-04-18T11:06:14.912Z,1012.4
2024-04-18T11:07:14.848Z,1012.4
2024-04-18T11:08:14.851Z,1012.4
2024-04-18T11:09:14.842Z,1012.4
2024-04-18T11:10:14.844Z,1012.4
2024-04-18T11:11:14.999Z,1012.4
2024-04-18T11:12:15.324Z,1012.4
2024-04-18T11:13:17.059Z,1012.5
2024-04-18T11:14:15.062Z,1012.4
2024-04-18T11:15:15.782Z,1012.5
2024-04-18T11:16:14.938Z,1012.5
2024-04-18T11:17:14.847Z,1012.4
2024-04-18T11:18:14.964Z,1012.5
2024-04-18T11:19:14.905Z,1012.5
2024-04-18T11:20:14.916Z,1012.5
2024-04-18T11:21:14.937Z,1012.5
2024-04-18T11:22:14.799Z,1012.5
2024-04-18T11:23:16.024Z,1012.5
2024-04-18T11:24:14.852Z,1012.5
2024-04-18T11:25:14.860Z,1012.5
2024-04-18T11:26:15.148Z,1012.5
2024-04-18T11:27:14.848Z,1012.5
2024-04-18T11:28:16.013Z,1012.5
2024-04-18T11:29:15.795Z,1012.5
2024-04-18T11:30:15.011Z,1012.5
2024-04-18T11:31:14.916Z,1012.5
2024-04-18T11:32:14.858Z,1012.5
2024-04-18T11:33:15.461Z,1012.6
2024-04-18T11:34:18.350Z,1012.5
2024-04-18T11:35:17.300Z,1012.5
2024-04-18T11:36:14.886Z,1012.6
2024-04-18T11:37:14.956Z,1012.5
2024-04-18T11:38:14.765Z,1012.7
2024-04-18T11:39:14.952Z,1012.6
2024-04-18T11:40:14.799Z,1012.6
2024-04-18T11:41:14.882Z,1012.6
2024-04-18T11:42:15.742Z,1012.6
2024-04-18T11:43:14.840Z,1012.6
2024-04-18T11:44:14.764Z,1012.6
2024-04-18T11:45:14.882Z,1012.6
2024-04-18T11:46:14.826Z,1012.7
2024-04-18T11:47:14.807Z,1012.6
2024-04-18T11:48:14.873Z,1012.6
2024-04-18T11:49:15.094Z,1012.7
2024-04-18T11:50:14.772Z,1012.6
2024-04-18T11:51:15.035Z,1012.6
2024-04-18T11:52:15.244Z,1012.6
2024-04-18T11:53:14.842Z,1012.6
2024-04-18T11:54:15.970Z,1012.6
2024-04-18T11:55:14.782Z,1012.6
2024-04-18T11:56:14.795Z,1012.6
2024-04-18T11:57:14.981Z,1012.7
2024-04-18T11:58:14.800Z,1012.6
2024-04-18T11:59:14.759Z,1012.6
2024-04-18T12:00:14.819Z,1012.6
2024-04-18T12:01:14.821Z,1012.6
2024-04-18T12:02:14.740Z,1012.6
2024-04-18T12:03:14.797Z,1012.5
2024-04-18T12:04:14.867Z,1012.6
2024-04-18T12:05:14.807Z,1012.6
2024-04-18T12:06:14.914Z,1012.5
2024-04-18T12:07:14.776Z,1012.6
2024-04-18T12:08:14.712Z,1012.6
2024-04-18T12:09:14.763Z,1012.6
2024-04-18T12:10:14.723Z,1012.6
2024-04-18T12:11:14.957Z,1012.6
2024-04-18T12:12:14.801Z,1012.6
2024-04-18T12:13:14.865Z,1012.7
2024-04-18T12:14:14.717Z,1012.6
2024-04-18T12:15:15.960Z,1012.7
2024-04-18T12:16:14.807Z,1012.7
2024-04-18T12:17:14.734Z,1012.7
2024-04-18T12:18:14.730Z,1012.8
2024-04-18T12:19:14.695Z,1012.6
2024-04-18T12:20:14.744Z,1012.7
2024-04-18T12:21:14.807Z,1012.7
2024-04-18T12:22:14.670Z,1012.7
2024-04-18T12:23:14.695Z,1012.6
2024-04-18T12:24:14.883Z,1012.6
2024-04-18T12:25:14.719Z,1012.6
2024-04-18T12:26:14.767Z,1012.6
2024-04-18T12:27:14.721Z,1012.6
2024-04-18T12:28:14.709Z,1012.6
2024-04-18T12:29:14.706Z,1012.6